Terminal Aerodrome Forecast
Issued by NWS

Home | Current Version | Previous Version | Text Only | Print | Product List | Glossary Off
Versions: 1 2 3 4 5 6 7 8 9 10 11 12 13 14 15

000
FTUS43 KGRB 251732
TAFRHI
TAF
KRHI 251732Z 2518/2618 15008KT P6SM VCSH BKN006 OVC010
      TEMPO 2518/2522 2SM SHRA BR SCT006 OVC010
     FM252200 24010KT P6SM SCT010 BKN040
      TEMPO 2522/2601 -SHRA BKN010
     FM260100 25008KT P6SM SCT020 BKN120
     FM260400 26008KT P6SM VCSH BKN011 OVC050
     FM261500 26013G18KT P6SM -SHRA OVC007=

USA.gov is the U.S. government's official web portal to all federal, state and local government web resources and services.